sensor_id;sensor_type;location;lat;lon;timestamp;temperature;humidity
7518;DHT22;3800;48.922;9.444;2023-05-10T00:01:32;13.70;99.90
7518;DHT22;3800;48.922;9.444;2023-05-10T00:04:01;13.60;99.90
7518;DHT22;3800;48.922;9.444;2023-05-10T00:06:29;13.60;99.90
7518;DHT22;3800;48.922;9.444;2023-05-10T00:08:58;13.60;99.90
7518;DHT22;3800;48.922;9.444;2023-05-10T00:11:27;13.60;99.90
7518;DHT22;3800;48.922;9.444;2023-05-10T00:13:56;13.60;99.90
7518;DHT22;3800;48.922;9.444;2023-05-10T00:16:24;13.60;99.90
7518;DHT22;3800;48.922;9.444;2023-05-10T00:18:53;13.60;99.90
7518;DHT22;3800;48.922;9.444;2023-05-10T00:21:21;13.60;99.90
7518;DHT22;3800;48.922;9.444;2023-05-10T00:23:49;13.50;99.90
7518;DHT22;3800;48.922;9.444;2023-05-10T00:26:18;13.50;99.90
7518;DHT22;3800;48.922;9.444;2023-05-10T00:28:46;13.50;99.90
7518;DHT22;3800;48.922;9.444;2023-05-10T00:31:14;13.40;99.90
7518;DHT22;3800;48.922;9.444;2023-05-10T00:33:42;13.40;99.90
7518;DHT22;3800;48.922;9.444;2023-05-10T00:36:11;13.30;99.90
7518;DHT22;3800;48.922;9.444;2023-05-10T00:38:39;13.30;99.90
7518;DHT22;3800;48.922;9.444;2023-05-10T00:41:07;13.20;99.90
7518;DHT22;3800;48.922;9.444;2023-05-10T00:43:35;13.20;99.90
7518;DHT22;3800;48.922;9.444;2023-05-10T00:46:04;13.20;99.90
7518;DHT22;3800;48.922;9.444;2023-05-10T00:48:33;13.20;99.90
7518;DHT22;3800;48.922;9.444;2023-05-10T00:51:01;13.20;99.90
7518;DHT22;3800;48.922;9.444;2023-05-10T00:53:30;13.20;99.90
7518;DHT22;3800;48.922;9.444;2023-05-10T00:55:58;13.10;99.90
7518;DHT22;3800;48.922;9.444;2023-05-10T00:58:26;13.10;99.90
7518;DHT22;3800;48.922;9.444;2023-05-10T01:00:54;13.00;99.90
7518;DHT22;3800;48.922;9.444;2023-05-10T01:03:22;13.00;99.90
7518;DHT22;3800;48.922;9.444;2023-05-10T01:05:52;12.90;99.90
7518;DHT22;3800;48.922;9.444;2023-05-10T01:08:21;12.90;99.90
7518;DHT22;3800;48.922;9.444;2023-05-10T01:10:49;12.90;99.90
7518;DHT22;3800;48.922;9.444;2023-05-10T01:13:23;12.90;99.90
7518;DHT22;3800;48.922;9.444;2023-05-10T01:15:51;12.80;99.90
7518;DHT22;3800;48.922;9.444;2023-05-10T01:18:19;12.80;99.90
7518;DHT22;3800;48.922;9.444;2023-05-10T01:20:48;12.80;99.90
7518;DHT22;3800;48.922;9.444;2023-05-10T01:23:25;12.70;99.90
7518;DHT22;3800;48.922;9.444;2023-05-10T01:28:58;12.70;99.90
7518;DHT22;3800;48.922;9.444;2023-05-10T01:34:08;12.60;99.90
7518;DHT22;3800;48.922;9.444;2023-05-10T01:36:43;12.60;99.90
7518;DHT22;3800;48.922;9.444;2023-05-10T01:41:54;12.50;99.90
7518;DHT22;3800;48.922;9.444;2023-05-10T01:44:38;12.50;99.90
7518;DHT22;3800;48.922;9.444;2023-05-10T01:47:08;12.40;99.90
7518;DHT22;3800;48.922;9.444;2023-05-10T01:49:37;12.40;99.90
7518;DHT22;3800;48.922;9.444;2023-05-10T01:52:08;12.40;99.90
7518;DHT22;3800;48.922;9.444;2023-05-10T01:54:37;12.40;99.90
7518;DHT22;3800;48.922;9.444;2023-05-10T01:57:05;12.40;99.90
7518;DHT22;3800;48.922;9.444;2023-05-10T01:59:34;12.40;99.90
7518;DHT22;3800;48.922;9.444;2023-05-10T02:02:04;12.40;99.90
7518;DHT22;3800;48.922;9.444;2023-05-10T02:04:33;12.40;99.90
7518;DHT22;3800;48.922;9.444;2023-05-10T02:07:00;12.40;99.90
7518;DHT22;3800;48.922;9.444;2023-05-10T02:09:29;12.40;99.90
7518;DHT22;3800;48.922;9.444;2023-05-10T02:11:58;12.40;99.90
7518;DHT22;3800;48.922;9.444;2023-05-10T02:14:26;12.40;99.90
7518;DHT22;3800;48.922;9.444;2023-05-10T02:16:55;12.40;99.90
7518;DHT22;3800;48.922;9.444;2023-05-10T02:19:23;12.40;99.90
7518;DHT22;3800;48.922;9.444;2023-05-10T02:21:52;12.40;99.90
7518;DHT22;3800;48.922;9.444;2023-05-10T02:24:21;12.40;99.90
7518;DHT22;3800;48.922;9.444;2023-05-10T02:26:50;12.40;99.90
7518;DHT22;3800;48.922;9.444;2023-05-10T02:29:18;12.30;99.90
7518;DHT22;3800;48.922;9.444;2023-05-10T02:31:47;12.40;99.90
7518;DHT22;3800;48.922;9.444;2023-05-10T02:34:15;12.30;99.90
7518;DHT22;3800;48.922;9.444;2023-05-10T02:36:44;12.30;99.90
7518;DHT22;3800;48.922;9.444;2023-05-10T02:39:13;12.30;99.90
7518;DHT22;3800;48.922;9.444;2023-05-10T02:41:41;12.30;99.90
7518;DHT22;3800;48.922;9.444;2023-05-10T02:44:09;12.30;99.90
7518;DHT22;3800;48.922;9.444;2023-05-10T02:46:37;12.30;99.90
7518;DHT22;3800;48.922;9.444;2023-05-10T02:49:05;12.30;99.90
7518;DHT22;3800;48.922;9.444;2023-05-10T02:51:34;12.30;99.90
7518;DHT22;3800;48.922;9.444;2023-05-10T02:54:20;12.30;99.90
7518;DHT22;3800;48.922;9.444;2023-05-10T02:56:47;12.30;99.90
7518;DHT22;3800;48.922;9.444;2023-05-10T02:59:15;12.30;99.90
7518;DHT22;3800;48.922;9.444;2023-05-10T03:01:44;12.30;99.90
7518;DHT22;3800;48.922;9.444;2023-05-10T03:04:12;12.30;99.90
7518;DHT22;3800;48.922;9.444;2023-05-10T03:06:41;12.30;99.90
7518;DHT22;3800;48.922;9.444;2023-05-10T03:09:10;12.30;99.90
7518;DHT22;3800;48.922;9.444;2023-05-10T03:11:43;12.40;99.90
7518;DHT22;3800;48.922;9.444;2023-05-10T03:17:19;12.40;99.90
7518;DHT22;3800;48.922;9.444;2023-05-10T03:19:52;12.40;99.90
7518;DHT22;3800;48.922;9.444;2023-05-10T03:22:21;12.40;99.90
7518;DHT22;3800;48.922;9.444;2023-05-10T03:24:45;12.40;99.90
7518;DHT22;3800;48.922;9.444;2023-05-10T03:27:14;12.40;99.90
7518;DHT22;3800;48.922;9.444;2023-05-10T03:29:42;12.40;99.90
7518;DHT22;3800;48.922;9.444;2023-05-10T03:32:10;12.40;99.90
7518;DHT22;3800;48.922;9.444;2023-05-10T03:34:42;12.40;99.90
7518;DHT22;3800;48.922;9.444;2023-05-10T03:37:09;12.40;99.90
7518;DHT22;3800;48.922;9.444;2023-05-10T03:39:37;12.40;99.90
7518;DHT22;3800;48.922;9.444;2023-05-10T03:42:06;12.40;99.90
7518;DHT22;3800;48.922;9.444;2023-05-10T03:44:34;12.50;99.90
7518;DHT22;3800;48.922;9.444;2023-05-10T03:47:02;12.50;99.90
7518;DHT22;3800;48.922;9.444;2023-05-10T03:49:31;12.50;99.90
7518;DHT22;3800;48.922;9.444;2023-05-10T03:52:00;12.50;99.90
7518;DHT22;3800;48.922;9.444;2023-05-10T03:54:28;12.50;99.90
7518;DHT22;3800;48.922;9.444;2023-05-10T03:56:58;12.50;99.90
7518;DHT22;3800;48.922;9.444;2023-05-10T03:59:25;12.50;99.90
7518;DHT22;3800;48.922;9.444;2023-05-10T04:01:53;12.50;99.90
7518;DHT22;3800;48.922;9.444;2023-05-10T04:04:22;12.50;99.90
7518;DHT22;3800;48.922;9.444;2023-05-10T04:06:50;12.50;99.90
7518;DHT22;3800;48.922;9.444;2023-05-10T04:09:18;12.50;99.90
7518;DHT22;3800;48.922;9.444;2023-05-10T04:11:46;12.50;99.90
7518;DHT22;3800;48.922;9.444;2023-05-10T04:14:15;12.50;99.90
7518;DHT22;3800;48.922;9.444;2023-05-10T04:16:43;12.50;99.90
7518;DHT22;3800;48.922;9.444;2023-05-10T04:19:11;12.50;99.90
7518;DHT22;3800;48.922;9.444;2023-05-10T04:21:39;12.50;99.90
7518;DHT22;3800;48.922;9.444;2023-05-10T04:24:08;12.50;99.90
7518;DHT22;3800;48.922;9.444;2023-05-10T04:26:37;12.50;99.90
7518;DHT22;3800;48.922;9.444;2023-05-10T04:29:05;12.50;99.90
7518;DHT22;3800;48.922;9.444;2023-05-10T04:31:33;12.50;99.90
7518;DHT22;3800;48.922;9.444;2023-05-10T04:34:01;12.50;99.90
7518;DHT22;3800;48.922;9.444;2023-05-10T04:36:30;12.50;99.90
7518;DHT22;3800;48.922;9.444;2023-05-10T04:38:58;12.50;99.90
7518;DHT22;3800;48.922;9.444;2023-05-10T04:41:26;12.50;99.90
7518;DHT22;3800;48.922;9.444;2023-05-10T04:43:55;12.50;99.90
7518;DHT22;3800;48.922;9.444;2023-05-10T04:46:23;12.50;99.90
7518;DHT22;3800;48.922;9.444;2023-05-10T04:48:51;12.50;99.90
7518;DHT22;3800;48.922;9.444;2023-05-10T04:51:20;12.60;99.90
7518;DHT22;3800;48.922;9.444;2023-05-10T04:53:48;12.50;99.90
7518;DHT22;3800;48.922;9.444;2023-05-10T04:56:17;12.50;99.90
7518;DHT22;3800;48.922;9.444;2023-05-10T04:58:45;12.50;99.90
7518;DHT22;3800;48.922;9.444;2023-05-10T05:01:13;12.50;99.90
7518;DHT22;3800;48.922;9.444;2023-05-10T05:03:41;12.50;99.90
7518;DHT22;3800;48.922;9.444;2023-05-10T05:06:10;12.50;99.90
7518;DHT22;3800;48.922;9.444;2023-05-10T05:08:39;12.50;99.90
7518;DHT22;3800;48.922;9.444;2023-05-10T05:11:07;12.50;99.90
7518;DHT22;3800;48.922;9.444;2023-05-10T05:13:35;12.50;99.90
7518;DHT22;3800;48.922;9.444;2023-05-10T05:16:04;12.60;99.90
7518;DHT22;3800;48.922;9.444;2023-05-10T05:18:32;12.60;99.90
7518;DHT22;3800;48.922;9.444;2023-05-10T05:21:01;12.60;99.90
7518;DHT22;3800;48.922;9.444;2023-05-10T05:23:30;12.60;99.90
7518;DHT22;3800;48.922;9.444;2023-05-10T05:25:58;12.60;99.90
7518;DHT22;3800;48.922;9.444;2023-05-10T05:28:26;12.70;99.90
7518;DHT22;3800;48.922;9.444;2023-05-10T05:30:54;12.70;99.90
7518;DHT22;3800;48.922;9.444;2023-05-10T05:33:23;12.70;99.90
7518;DHT22;3800;48.922;9.444;2023-05-10T05:35:51;12.80;99.90
7518;DHT22;3800;48.922;9.444;2023-05-10T05:38:20;12.80;99.90
7518;DHT22;3800;48.922;9.444;2023-05-10T05:40:48;12.80;99.90
7518;DHT22;3800;48.922;9.444;2023-05-10T05:43:16;12.80;99.90
7518;DHT22;3800;48.922;9.444;2023-05-10T05:45:45;12.90;99.90
7518;DHT22;3800;48.922;9.444;2023-05-10T05:48:13;12.90;99.90
7518;DHT22;3800;48.922;9.444;2023-05-10T05:50:41;13.00;99.90
7518;DHT22;3800;48.922;9.444;2023-05-10T05:53:09;13.00;99.90
7518;DHT22;3800;48.922;9.444;2023-05-10T05:55:38;13.00;99.90
7518;DHT22;3800;48.922;9.444;2023-05-10T05:58:06;13.00;99.90
7518;DHT22;3800;48.922;9.444;2023-05-10T06:00:34;13.10;99.90
7518;DHT22;3800;48.922;9.444;2023-05-10T06:03:03;13.10;99.90
7518;DHT22;3800;48.922;9.444;2023-05-10T06:05:32;13.20;99.90
7518;DHT22;3800;48.922;9.444;2023-05-10T06:08:00;13.10;99.90
7518;DHT22;3800;48.922;9.444;2023-05-10T06:10:29;13.30;99.90
7518;DHT22;3800;48.922;9.444;2023-05-10T06:12:57;13.20;99.90
7518;DHT22;3800;48.922;9.444;2023-05-10T06:15:26;13.30;99.90
7518;DHT22;3800;48.922;9.444;2023-05-10T06:17:54;13.30;99.90
7518;DHT22;3800;48.922;9.444;2023-05-10T06:20:23;13.40;99.90
7518;DHT22;3800;48.922;9.444;2023-05-10T06:22:52;13.30;99.90
7518;DHT22;3800;48.922;9.444;2023-05-10T06:25:21;13.30;99.90
7518;DHT22;3800;48.922;9.444;2023-05-10T06:27:49;13.30;99.90
7518;DHT22;3800;48.922;9.444;2023-05-10T06:30:17;13.30;99.90
7518;DHT22;3800;48.922;9.444;2023-05-10T06:32:45;13.30;99.90
7518;DHT22;3800;48.922;9.444;2023-05-10T06:35:14;13.30;99.90
7518;DHT22;3800;48.922;9.444;2023-05-10T06:37:42;13.30;99.90
7518;DHT22;3800;48.922;9.444;2023-05-10T06:40:10;13.30;99.90
7518;DHT22;3800;48.922;9.444;2023-05-10T06:42:39;13.40;99.90
7518;DHT22;3800;48.922;9.444;2023-05-10T06:45:08;13.40;99.90
7518;DHT22;3800;48.922;9.444;2023-05-10T06:47:37;13.40;99.90
7518;DHT22;3800;48.922;9.444;2023-05-10T06:50:05;13.40;99.90
7518;DHT22;3800;48.922;9.444;2023-05-10T06:52:34;13.40;99.90
7518;DHT22;3800;48.922;9.444;2023-05-10T06:55:03;13.40;99.90
7518;DHT22;3800;48.922;9.444;2023-05-10T06:57:31;13.30;99.90
7518;DHT22;3800;48.922;9.444;2023-05-10T06:59:59;13.40;99.90
7518;DHT22;3800;48.922;9.444;2023-05-10T07:02:27;13.30;99.90
7518;DHT22;3800;48.922;9.444;2023-05-10T07:04:56;13.40;99.90
7518;DHT22;3800;48.922;9.444;2023-05-10T07:07:25;13.30;99.90
7518;DHT22;3800;48.922;9.444;2023-05-10T07:09:53;13.30;99.90
7518;DHT22;3800;48.922;9.444;2023-05-10T07:12:22;13.50;99.90
7518;DHT22;3800;48.922;9.444;2023-05-10T07:14:50;13.50;99.90
7518;DHT22;3800;48.922;9.444;2023-05-10T07:17:19;13.60;99.90
7518;DHT22;3800;48.922;9.444;2023-05-10T07:19:47;13.60;99.90
7518;DHT22;3800;48.922;9.444;2023-05-10T07:22:16;13.70;99.90
7518;DHT22;3800;48.922;9.444;2023-05-10T07:24:45;13.70;99.90
7518;DHT22;3800;48.922;9.444;2023-05-10T07:27:14;13.80;99.90
7518;DHT22;3800;48.922;9.444;2023-05-10T07:29:42;13.80;99.90
7518;DHT22;3800;48.922;9.444;2023-05-10T07:32:11;13.90;99.90
7518;DHT22;3800;48.922;9.444;2023-05-10T07:34:39;13.80;99.90
7518;DHT22;3800;48.922;9.444;2023-05-10T07:37:08;13.90;99.90
7518;DHT22;3800;48.922;9.444;2023-05-10T07:39:36;13.90;99.90
7518;DHT22;3800;48.922;9.444;2023-05-10T07:42:05;14.00;99.90
7518;DHT22;3800;48.922;9.444;2023-05-10T07:44:33;14.00;99.90
7518;DHT22;3800;48.922;9.444;2023-05-10T07:47:01;14.00;99.90
7518;DHT22;3800;48.922;9.444;2023-05-10T07:49:30;14.10;99.90
7518;DHT22;3800;48.922;9.444;2023-05-10T07:51:58;14.00;99.90
7518;DHT22;3800;48.922;9.444;2023-05-10T07:54:28;14.10;99.90
7518;DHT22;3800;48.922;9.444;2023-05-10T07:56:56;14.00;99.90
7518;DHT22;3800;48.922;9.444;2023-05-10T07:59:25;14.00;99.90
7518;DHT22;3800;48.922;9.444;2023-05-10T08:01:53;13.90;99.90
7518;DHT22;3800;48.922;9.444;2023-05-10T08:04:22;13.90;99.90
7518;DHT22;3800;48.922;9.444;2023-05-10T08:06:50;13.90;99.90
7518;DHT22;3800;48.922;9.444;2023-05-10T08:09:19;13.90;99.90
7518;DHT22;3800;48.922;9.444;2023-05-10T08:11:47;14.00;99.90
7518;DHT22;3800;48.922;9.444;2023-05-10T08:14:15;14.00;99.90
7518;DHT22;3800;48.922;9.444;2023-05-10T08:16:43;14.00;99.90
7518;DHT22;3800;48.922;9.444;2023-05-10T08:19:12;14.00;99.90
7518;DHT22;3800;48.922;9.444;2023-05-10T08:21:40;14.00;99.90
7518;DHT22;3800;48.922;9.444;2023-05-10T08:24:08;14.00;99.90
7518;DHT22;3800;48.922;9.444;2023-05-10T08:26:36;14.00;99.90
7518;DHT22;3800;48.922;9.444;2023-05-10T08:29:05;14.00;99.90
7518;DHT22;3800;48.922;9.444;2023-05-10T08:31:33;14.00;99.90
7518;DHT22;3800;48.922;9.444;2023-05-10T08:34:01;14.00;99.90
7518;DHT22;3800;48.922;9.444;2023-05-10T08:36:30;14.00;99.90
7518;DHT22;3800;48.922;9.444;2023-05-10T08:38:58;14.00;99.90
7518;DHT22;3800;48.922;9.444;2023-05-10T08:41:26;14.00;99.90
7518;DHT22;3800;48.922;9.444;2023-05-10T08:43:54;14.10;99.90
7518;DHT22;3800;48.922;9.444;2023-05-10T08:46:23;14.20;99.90
7518;DHT22;3800;48.922;9.444;2023-05-10T08:48:51;14.30;99.90
7518;DHT22;3800;48.922;9.444;2023-05-10T08:51:22;14.30;99.90
7518;DHT22;3800;48.922;9.444;2023-05-10T08:53:47;14.40;99.90
7518;DHT22;3800;48.922;9.444;2023-05-10T08:56:16;14.40;99.90
7518;DHT22;3800;48.922;9.444;2023-05-10T08:58:45;14.50;99.90
7518;DHT22;3800;48.922;9.444;2023-05-10T09:01:13;14.50;99.90
7518;DHT22;3800;48.922;9.444;2023-05-10T09:03:41;14.60;99.90
7518;DHT22;3800;48.922;9.444;2023-05-10T09:06:10;14.60;99.90
7518;DHT22;3800;48.922;9.444;2023-05-10T09:08:38;14.60;99.90
7518;DHT22;3800;48.922;9.444;2023-05-10T09:11:06;14.70;99.90
7518;DHT22;3800;48.922;9.444;2023-05-10T09:13:35;14.80;99.90
7518;DHT22;3800;48.922;9.444;2023-05-10T09:16:03;14.90;99.90
7518;DHT22;3800;48.922;9.444;2023-05-10T09:18:31;14.90;99.90
7518;DHT22;3800;48.922;9.444;2023-05-10T09:20:59;15.00;99.90
7518;DHT22;3800;48.922;9.444;2023-05-10T09:23:27;15.10;99.90
7518;DHT22;3800;48.922;9.444;2023-05-10T09:26:04;15.10;99.90
7518;DHT22;3800;48.922;9.444;2023-05-10T09:28:33;15.20;99.90
7518;DHT22;3800;48.922;9.444;2023-05-10T09:31:02;15.20;99.90
7518;DHT22;3800;48.922;9.444;2023-05-10T09:33:32;15.30;99.90
7518;DHT22;3800;48.922;9.444;2023-05-10T09:36:06;15.30;99.90
7518;DHT22;3800;48.922;9.444;2023-05-10T09:38:26;15.30;99.90
7518;DHT22;3800;48.922;9.444;2023-05-10T09:40:55;15.30;99.90
7518;DHT22;3800;48.922;9.444;2023-05-10T09:43:23;15.30;99.90
7518;DHT22;3800;48.922;9.444;2023-05-10T09:45:51;15.20;99.90
7518;DHT22;3800;48.922;9.444;2023-05-10T09:48:21;15.20;99.90
7518;DHT22;3800;48.922;9.444;2023-05-10T09:50:55;15.10;99.90
7518;DHT22;3800;48.922;9.444;2023-05-10T09:53:17;14.80;99.90
7518;DHT22;3800;48.922;9.444;2023-05-10T09:55:45;14.70;99.90
7518;DHT22;3800;48.922;9.444;2023-05-10T09:58:14;14.00;99.90
7518;DHT22;3800;48.922;9.444;2023-05-10T10:00:43;14.00;99.90
7518;DHT22;3800;48.922;9.444;2023-05-10T10:03:13;13.70;99.90
7518;DHT22;3800;48.922;9.444;2023-05-10T10:05:41;13.70;99.90
7518;DHT22;3800;48.922;9.444;2023-05-10T10:08:09;13.70;99.90
7518;DHT22;3800;48.922;9.444;2023-05-10T10:10:38;13.70;99.90
7518;DHT22;3800;48.922;9.444;2023-05-10T10:13:06;13.80;99.90
7518;DHT22;3800;48.922;9.444;2023-05-10T10:15:34;13.90;99.90
7518;DHT22;3800;48.922;9.444;2023-05-10T10:18:02;14.10;99.90
7518;DHT22;3800;48.922;9.444;2023-05-10T10:20:32;14.40;99.90
7518;DHT22;3800;48.922;9.444;2023-05-10T10:23:00;14.40;99.90
7518;DHT22;3800;48.922;9.444;2023-05-10T10:25:29;14.50;99.90
7518;DHT22;3800;48.922;9.444;2023-05-10T10:28:06;14.70;99.90
7518;DHT22;3800;48.922;9.444;2023-05-10T10:30:42;14.80;99.90
7518;DHT22;3800;48.922;9.444;2023-05-10T10:34:27;14.80;99.90
7518;DHT22;3800;48.922;9.444;2023-05-10T10:36:09;15.10;99.90
7518;DHT22;3800;48.922;9.444;2023-05-10T10:38:38;15.00;99.90
7518;DHT22;3800;48.922;9.444;2023-05-10T10:41:11;15.30;99.90
7518;DHT22;3800;48.922;9.444;2023-05-10T10:43:39;15.30;99.90
7518;DHT22;3800;48.922;9.444;2023-05-10T10:46:12;15.40;99.90
7518;DHT22;3800;48.922;9.444;2023-05-10T10:48:41;15.40;99.90
7518;DHT22;3800;48.922;9.444;2023-05-10T10:51:09;15.50;99.90
7518;DHT22;3800;48.922;9.444;2023-05-10T10:53:37;15.50;99.90
7518;DHT22;3800;48.922;9.444;2023-05-10T10:56:07;15.50;99.90
7518;DHT22;3800;48.922;9.444;2023-05-10T10:58:37;15.60;99.90
7518;DHT22;3800;48.922;9.444;2023-05-10T11:01:11;15.60;99.90
7518;DHT22;3800;48.922;9.444;2023-05-10T11:03:41;15.60;99.90
7518;DHT22;3800;48.922;9.444;2023-05-10T11:06:09;15.50;99.90
7518;DHT22;3800;48.922;9.444;2023-05-10T11:08:42;15.50;99.90
7518;DHT22;3800;48.922;9.444;2023-05-10T11:11:12;15.40;99.90
7518;DHT22;3800;48.922;9.444;2023-05-10T11:13:42;15.40;99.90
7518;DHT22;3800;48.922;9.444;2023-05-10T11:16:12;15.30;99.90
7518;DHT22;3800;48.922;9.444;2023-05-10T11:18:51;15.10;99.90
7518;DHT22;3800;48.922;9.444;2023-05-10T11:21:15;15.00;99.90
7518;DHT22;3800;48.922;9.444;2023-05-10T11:23:52;15.00;99.90
7518;DHT22;3800;48.922;9.444;2023-05-10T11:26:19;15.00;99.90
7518;DHT22;3800;48.922;9.444;2023-05-10T11:28:48;15.00;99.90
7518;DHT22;3800;48.922;9.444;2023-05-10T11:31:17;14.90;99.90
7518;DHT22;3800;48.922;9.444;2023-05-10T11:33:45;14.80;99.90
7518;DHT22;3800;48.922;9.444;2023-05-10T11:36:15;14.60;99.90
7518;DHT22;3800;48.922;9.444;2023-05-10T11:38:42;14.50;99.90
7518;DHT22;3800;48.922;9.444;2023-05-10T11:41:12;14.30;99.90
7518;DHT22;3800;48.922;9.444;2023-05-10T11:43:40;14.30;99.90
7518;DHT22;3800;48.922;9.444;2023-05-10T11:46:10;14.20;99.90
7518;DHT22;3800;48.922;9.444;2023-05-10T11:48:39;14.30;99.90
7518;DHT22;3800;48.922;9.444;2023-05-10T11:51:07;14.20;99.90
7518;DHT22;3800;48.922;9.444;2023-05-10T11:53:36;14.30;99.90
7518;DHT22;3800;48.922;9.444;2023-05-10T11:56:08;14.40;99.90
7518;DHT22;3800;48.922;9.444;2023-05-10T11:58:37;14.50;99.90
7518;DHT22;3800;48.922;9.444;2023-05-10T12:01:05;14.60;99.90
7518;DHT22;3800;48.922;9.444;2023-05-10T12:03:33;14.80;99.90
7518;DHT22;3800;48.922;9.444;2023-05-10T12:06:01;15.00;99.90
7518;DHT22;3800;48.922;9.444;2023-05-10T12:08:30;14.90;99.90
7518;DHT22;3800;48.922;9.444;2023-05-10T12:11:04;15.10;99.90
7518;DHT22;3800;48.922;9.444;2023-05-10T12:13:32;15.20;99.90
7518;DHT22;3800;48.922;9.444;2023-05-10T12:16:00;15.30;99.90
7518;DHT22;3800;48.922;9.444;2023-05-10T12:18:29;15.50;99.90
7518;DHT22;3800;48.922;9.444;2023-05-10T12:21:02;15.50;99.90
7518;DHT22;3800;48.922;9.444;2023-05-10T12:23:25;15.50;99.90
7518;DHT22;3800;48.922;9.444;2023-05-10T12:25:53;15.50;99.90
7518;DHT22;3800;48.922;9.444;2023-05-10T12:28:22;15.50;99.90
7518;DHT22;3800;48.922;9.444;2023-05-10T12:30:53;15.50;99.90
7518;DHT22;3800;48.922;9.444;2023-05-10T12:33:19;15.50;99.90
7518;DHT22;3800;48.922;9.444;2023-05-10T12:35:48;15.50;99.90
7518;DHT22;3800;48.922;9.444;2023-05-10T12:38:26;15.50;99.90
7518;DHT22;3800;48.922;9.444;2023-05-10T12:40:59;15.40;99.90
7518;DHT22;3800;48.922;9.444;2023-05-10T12:43:27;15.40;99.90
7518;DHT22;3800;48.922;9.444;2023-05-10T12:45:56;15.40;99.90
7518;DHT22;3800;48.922;9.444;2023-05-10T12:48:25;15.40;99.90
7518;DHT22;3800;48.922;9.444;2023-05-10T12:50:54;15.40;99.90
7518;DHT22;3800;48.922;9.444;2023-05-10T12:53:22;15.40;99.90
7518;DHT22;3800;48.922;9.444;2023-05-10T12:55:50;15.40;99.90
7518;DHT22;3800;48.922;9.444;2023-05-10T12:58:18;15.40;99.90
7518;DHT22;3800;48.922;9.444;2023-05-10T13:00:47;15.50;99.90
7518;DHT22;3800;48.922;9.444;2023-05-10T13:03:15;15.40;99.90
7518;DHT22;3800;48.922;9.444;2023-05-10T13:05:44;15.30;99.90
7518;DHT22;3800;48.922;9.444;2023-05-10T13:08:12;15.30;99.90
7518;DHT22;3800;48.922;9.444;2023-05-10T13:10:41;15.20;99.90
7518;DHT22;3800;48.922;9.444;2023-05-10T13:13:09;15.10;99.90
7518;DHT22;3800;48.922;9.444;2023-05-10T13:15:38;15.00;99.90
7518;DHT22;3800;48.922;9.444;2023-05-10T13:18:06;15.00;99.90
7518;DHT22;3800;48.922;9.444;2023-05-10T13:20:34;15.00;99.90
7518;DHT22;3800;48.922;9.444;2023-05-10T13:23:02;15.00;99.90
7518;DHT22;3800;48.922;9.444;2023-05-10T13:25:31;15.00;99.90
7518;DHT22;3800;48.922;9.444;2023-05-10T13:27:59;15.00;99.90
7518;DHT22;3800;48.922;9.444;2023-05-10T13:30:27;15.00;99.90
7518;DHT22;3800;48.922;9.444;2023-05-10T13:32:55;15.10;99.90
7518;DHT22;3800;48.922;9.444;2023-05-10T13:35:24;15.10;99.90
7518;DHT22;3800;48.922;9.444;2023-05-10T13:37:52;15.20;99.90
7518;DHT22;3800;48.922;9.444;2023-05-10T13:40:20;15.20;99.90
7518;DHT22;3800;48.922;9.444;2023-05-10T13:42:48;15.40;99.90
7518;DHT22;3800;48.922;9.444;2023-05-10T13:45:17;15.40;99.90
7518;DHT22;3800;48.922;9.444;2023-05-10T13:47:45;15.50;99.90
7518;DHT22;3800;48.922;9.444;2023-05-10T13:50:14;15.60;99.90
7518;DHT22;3800;48.922;9.444;2023-05-10T13:52:42;15.60;99.90
7518;DHT22;3800;48.922;9.444;2023-05-10T13:55:12;15.70;99.90
7518;DHT22;3800;48.922;9.444;2023-05-10T13:57:40;15.70;99.90
7518;DHT22;3800;48.922;9.444;2023-05-10T14:00:09;15.70;99.90
7518;DHT22;3800;48.922;9.444;2023-05-10T14:02:37;15.70;99.90
7518;DHT22;3800;48.922;9.444;2023-05-10T14:05:06;15.70;99.90
7518;DHT22;3800;48.922;9.444;2023-05-10T14:07:34;15.70;99.90
7518;DHT22;3800;48.922;9.444;2023-05-10T14:10:03;15.70;99.90
7518;DHT22;3800;48.922;9.444;2023-05-10T14:12:31;15.60;99.90
7518;DHT22;3800;48.922;9.444;2023-05-10T14:14:59;15.60;99.90
7518;DHT22;3800;48.922;9.444;2023-05-10T14:17:28;15.60;99.90
7518;DHT22;3800;48.922;9.444;2023-05-10T14:19:57;15.60;99.90
7518;DHT22;3800;48.922;9.444;2023-05-10T14:22:26;15.50;99.90
7518;DHT22;3800;48.922;9.444;2023-05-10T14:24:54;15.50;99.90
7518;DHT22;3800;48.922;9.444;2023-05-10T14:27:22;15.50;99.90
7518;DHT22;3800;48.922;9.444;2023-05-10T14:29:50;15.50;99.90
7518;DHT22;3800;48.922;9.444;2023-05-10T14:32:19;15.40;99.90
7518;DHT22;3800;48.922;9.444;2023-05-10T14:34:47;15.50;99.90
7518;DHT22;3800;48.922;9.444;2023-05-10T14:37:15;15.50;99.90
7518;DHT22;3800;48.922;9.444;2023-05-10T14:39:43;15.50;99.90
7518;DHT22;3800;48.922;9.444;2023-05-10T14:42:12;15.50;99.90
7518;DHT22;3800;48.922;9.444;2023-05-10T14:44:40;15.50;99.90
7518;DHT22;3800;48.922;9.444;2023-05-10T14:47:08;15.50;99.90
7518;DHT22;3800;48.922;9.444;2023-05-10T14:49:37;15.50;99.90
7518;DHT22;3800;48.922;9.444;2023-05-10T14:52:05;15.50;99.90
7518;DHT22;3800;48.922;9.444;2023-05-10T14:54:33;15.50;99.90
7518;DHT22;3800;48.922;9.444;2023-05-10T14:57:01;15.50;99.90
7518;DHT22;3800;48.922;9.444;2023-05-10T14:59:30;15.40;99.90
7518;DHT22;3800;48.922;9.444;2023-05-10T15:01:58;15.40;99.90
7518;DHT22;3800;48.922;9.444;2023-05-10T15:04:26;15.40;99.90
7518;DHT22;3800;48.922;9.444;2023-05-10T15:06:54;15.40;99.90
7518;DHT22;3800;48.922;9.444;2023-05-10T15:09:23;15.40;99.90
7518;DHT22;3800;48.922;9.444;2023-05-10T15:11:52;15.50;99.90
7518;DHT22;3800;48.922;9.444;2023-05-10T15:14:20;15.50;99.90
7518;DHT22;3800;48.922;9.444;2023-05-10T15:16:49;15.60;99.90
7518;DHT22;3800;48.922;9.444;2023-05-10T15:19:17;15.60;99.90
7518;DHT22;3800;48.922;9.444;2023-05-10T15:21:46;15.60;99.90
7518;DHT22;3800;48.922;9.444;2023-05-10T15:24:15;15.60;99.90
7518;DHT22;3800;48.922;9.444;2023-05-10T15:26:43;15.60;99.90
7518;DHT22;3800;48.922;9.444;2023-05-10T15:29:12;15.50;99.90
7518;DHT22;3800;48.922;9.444;2023-05-10T15:31:47;15.50;99.90
7518;DHT22;3800;48.922;9.444;2023-05-10T15:34:16;15.50;99.90
7518;DHT22;3800;48.922;9.444;2023-05-10T15:36:44;15.50;99.90
7518;DHT22;3800;48.922;9.444;2023-05-10T15:39:12;15.50;99.90
7518;DHT22;3800;48.922;9.444;2023-05-10T15:41:40;15.60;99.90
7518;DHT22;3800;48.922;9.444;2023-05-10T15:44:08;15.60;99.90
7518;DHT22;3800;48.922;9.444;2023-05-10T15:46:37;15.70;99.90
7518;DHT22;3800;48.922;9.444;2023-05-10T15:49:06;15.70;99.90
7518;DHT22;3800;48.922;9.444;2023-05-10T15:51:34;15.60;99.90
7518;DHT22;3800;48.922;9.444;2023-05-10T15:54:02;15.70;99.90
7518;DHT22;3800;48.922;9.444;2023-05-10T15:56:30;15.70;99.90
7518;DHT22;3800;48.922;9.444;2023-05-10T15:58:59;15.60;99.90
7518;DHT22;3800;48.922;9.444;2023-05-10T16:01:28;15.60;99.90
7518;DHT22;3800;48.922;9.444;2023-05-10T16:03:56;15.60;99.90
7518;DHT22;3800;48.922;9.444;2023-05-10T16:06:24;15.60;99.90
7518;DHT22;3800;48.922;9.444;2023-05-10T16:08:53;15.60;99.90
7518;DHT22;3800;48.922;9.444;2023-05-10T16:11:21;15.70;99.90
7518;DHT22;3800;48.922;9.444;2023-05-10T16:13:49;15.60;99.90
7518;DHT22;3800;48.922;9.444;2023-05-10T16:16:18;15.60;99.90
7518;DHT22;3800;48.922;9.444;2023-05-10T16:18:46;15.60;99.90
7518;DHT22;3800;48.922;9.444;2023-05-10T16:21:15;15.60;99.90
7518;DHT22;3800;48.922;9.444;2023-05-10T16:23:44;15.60;99.90